createdAt,value
2023-05-14T00:01:08.537Z,100665.33
2023-05-14T00:03:56.819Z,100666.98
2023-05-14T00:06:47.234Z,100671.07
2023-05-14T00:09:36.205Z,100671.93
2023-05-14T00:12:24.967Z,100667.28
2023-05-14T00:15:13.307Z,100663.65
2023-05-14T00:18:01.098Z,100664.25
2023-05-14T00:20:49.456Z,100661.70
2023-05-14T00:23:37.630Z,100661.77
2023-05-14T00:26:25.777Z,100663.04
2023-05-14T00:29:13.874Z,100667.05
2023-05-14T00:32:01.757Z,100671.95
2023-05-14T00:34:50.875Z,100660.69
2023-05-14T00:37:40.475Z,100670.25
2023-05-14T00:40:29.934Z,100666.54
2023-05-14T00:43:20.784Z,100668.87
2023-05-14T00:46:09.175Z,100669.54
2023-05-14T00:49:00.001Z,100667.08
2023-05-14T00:51:48.477Z,100663.13
2023-05-14T00:54:37.095Z,100662.23
2023-05-14T00:57:25.144Z,100660.02
2023-05-14T01:00:15.187Z,100658.26
2023-05-14T01:03:05.396Z,100654.09
2023-05-14T01:06:26.669Z,100654.38
2023-05-14T01:09:35.302Z,100654.50
2023-05-14T01:12:38.631Z,100656.11
2023-05-14T01:15:34.804Z,100656.85
2023-05-14T01:18:24.526Z,100657.83
2023-05-14T01:21:43.109Z,100658.91
2023-05-14T01:24:31.185Z,100650.85
2023-05-14T01:28:13.663Z,100653.75
2023-05-14T01:31:14.562Z,100651.13
2023-05-14T01:34:05.752Z,100653.82
2023-05-14T01:36:58.972Z,100652.20
2023-05-14T01:39:47.801Z,100648.08
2023-05-14T01:42:36.973Z,100649.41
2023-05-14T01:45:25.218Z,100645.67
2023-05-14T01:48:13.314Z,100643.02
2023-05-14T01:51:03.217Z,100641.48
2023-05-14T01:53:51.446Z,100640.69
2023-05-14T01:56:39.429Z,100642.52
2023-05-14T01:59:29.952Z,100642.24
2023-05-14T02:02:18.291Z,100643.88
2023-05-14T02:05:09.600Z,100645.96
2023-05-14T02:07:58.312Z,100645.34
2023-05-14T02:10:46.866Z,100643.70
2023-05-14T02:13:35.004Z,100636.36
2023-05-14T02:16:23.054Z,100636.71
2023-05-14T02:19:14.735Z,100637.41
2023-05-14T02:22:04.002Z,100636.70
2023-05-14T02:24:52.476Z,100635.97
2023-05-14T02:27:40.844Z,100633.83
2023-05-14T02:30:30.203Z,100632.84
2023-05-14T02:33:19.065Z,100630.15
2023-05-14T02:36:08.792Z,100631.77
2023-05-14T02:39:01.241Z,100628.06
2023-05-14T02:41:49.001Z,100629.12
2023-05-14T02:44:38.297Z,100627.34
2023-05-14T02:47:26.222Z,100627.33
2023-05-14T02:50:14.602Z,100625.60
2023-05-14T02:53:02.602Z,100624.38
2023-05-14T02:55:50.834Z,100622.02
2023-05-14T02:58:39.465Z,100620.55
2023-05-14T03:01:27.513Z,100622.94
2023-05-14T03:04:16.369Z,100624.48
2023-05-14T03:07:04.678Z,100623.19
2023-05-14T03:09:52.469Z,100624.96
2023-05-14T03:12:41.888Z,100622.95
2023-05-14T03:15:29.860Z,100625.11
2023-05-14T03:18:17.952Z,100624.12
2023-05-14T03:21:09.277Z,100614.19
2023-05-14T03:23:57.498Z,100617.42
2023-05-14T03:26:45.584Z,100616.98
2023-05-14T03:29:33.826Z,100617.14
2023-05-14T03:32:22.112Z,100615.91
2023-05-14T03:35:11.337Z,100615.84
2023-05-14T03:38:00.033Z,100612.08
2023-05-14T03:40:51.426Z,100610.69
2023-05-14T03:43:40.159Z,100607.16
2023-05-14T03:46:29.455Z,100604.05
2023-05-14T03:49:18.064Z,100603.24
2023-05-14T03:52:06.701Z,100599.94
2023-05-14T03:54:55.996Z,100592.77
2023-05-14T03:57:46.235Z,100592.55
2023-05-14T04:00:34.766Z,100589.02
2023-05-14T04:03:22.955Z,100592.17
2023-05-14T04:06:11.480Z,100592.09
2023-05-14T04:08:59.955Z,100587.05
2023-05-14T04:11:48.556Z,100587.45
2023-05-14T04:14:38.781Z,100591.76
2023-05-14T04:17:27.761Z,100594.23
2023-05-14T04:20:15.942Z,100598.94
2023-05-14T04:23:05.887Z,100596.83
2023-05-14T04:25:53.825Z,100602.23
2023-05-14T04:28:41.900Z,100602.37
2023-05-14T04:31:31.831Z,100595.58
2023-05-14T04:34:20.605Z,100596.43
2023-05-14T04:37:09.114Z,100593.14
2023-05-14T04:39:57.331Z,100594.84
2023-05-14T04:42:45.592Z,100590.76
2023-05-14T04:45:34.375Z,100591.27
2023-05-14T04:48:25.365Z,100588.84
2023-05-14T04:51:14.028Z,100586.78
2023-05-14T04:54:02.581Z,100584.87
2023-05-14T04:56:55.200Z,100582.17
2023-05-14T04:59:44.250Z,100582.02
2023-05-14T05:02:34.887Z,100580.11
2023-05-14T05:05:31.156Z,100571.85
2023-05-14T05:08:24.057Z,100572.77
2023-05-14T05:11:16.452Z,100570.17
2023-05-14T05:14:04.916Z,100569.13
2023-05-14T05:16:52.753Z,100564.45
2023-05-14T05:19:44.128Z,100559.11
2023-05-14T05:22:33.306Z,100550.34
2023-05-14T05:25:21.386Z,100550.95
2023-05-14T05:28:09.658Z,100547.98
2023-05-14T05:30:57.483Z,100543.02
2023-05-14T05:33:45.798Z,100539.05
2023-05-14T05:36:34.063Z,100539.71
2023-05-14T05:39:22.081Z,100535.49
2023-05-14T05:42:22.709Z,100539.49
2023-05-14T05:45:11.479Z,100532.80
2023-05-14T05:48:02.436Z,100529.42
2023-05-14T05:50:51.576Z,100529.70
2023-05-14T05:53:39.700Z,100532.67
2023-05-14T05:56:28.494Z,100527.90
2023-05-14T05:59:16.993Z,100524.30
2023-05-14T06:02:06.984Z,100525.90
2023-05-14T06:04:54.947Z,100527.27
2023-05-14T06:07:43.212Z,100528.27
2023-05-14T06:10:32.019Z,100527.31
2023-05-14T06:13:20.700Z,100523.05
2023-05-14T06:16:08.924Z,100522.82
2023-05-14T06:18:56.947Z,100521.64
2023-05-14T06:21:45.124Z,100520.23
2023-05-14T06:24:33.132Z,100513.73
2023-05-14T06:27:23.605Z,100510.58
2023-05-14T06:30:12.793Z,100510.42
2023-05-14T06:33:00.826Z,100510.41
2023-05-14T06:35:49.353Z,100507.98
2023-05-14T06:38:37.734Z,100508.42
2023-05-14T06:41:26.319Z,100504.08
2023-05-14T06:44:17.216Z,100503.59
2023-05-14T06:47:08.858Z,100503.77
2023-05-14T06:49:58.903Z,100508.23
2023-05-14T06:52:47.698Z,100504.63
2023-05-14T06:55:36.180Z,100501.70
2023-05-14T06:58:24.466Z,100505.09
2023-05-14T07:01:12.813Z,100507.65
2023-05-14T07:04:03.032Z,100507.30
2023-05-14T07:06:51.613Z,100505.48
2023-05-14T07:09:42.231Z,100504.31
2023-05-14T07:12:31.317Z,100506.70
2023-05-14T07:15:20.202Z,100500.85
2023-05-14T07:18:08.035Z,100500.44
2023-05-14T07:20:57.145Z,100501.50
2023-05-14T07:23:45.315Z,100500.58
2023-05-14T07:26:33.764Z,100498.90
2023-05-14T07:29:21.873Z,100498.52
2023-05-14T07:32:09.967Z,100493.98
2023-05-14T07:34:57.926Z,100492.95
2023-05-14T07:37:46.816Z,100490.02
2023-05-14T07:40:37.840Z,100486.27
2023-05-14T07:43:27.150Z,100486.80
2023-05-14T07:46:18.204Z,100487.55
2023-05-14T07:49:05.960Z,100481.19
2023-05-14T07:51:54.286Z,100479.64
2023-05-14T07:54:44.664Z,100480.44
2023-05-14T07:57:34.288Z,100479.37
2023-05-14T08:00:22.726Z,100480.75
2023-05-14T08:03:11.956Z,100477.73
2023-05-14T08:06:00.177Z,100471.87
2023-05-14T08:08:50.510Z,100468.45
2023-05-14T08:11:39.352Z,100464.20
2023-05-14T08:14:27.919Z,100462.01
2023-05-14T08:17:16.973Z,100463.02
2023-05-14T08:20:07.025Z,100462.03
2023-05-14T08:22:58.752Z,100462.95
2023-05-14T08:25:48.453Z,100461.05
2023-05-14T08:28:36.622Z,100460.09
2023-05-14T08:31:27.307Z,100460.63
2023-05-14T08:34:16.628Z,100458.66
2023-05-14T08:37:05.894Z,100457.10
2023-05-14T08:39:54.711Z,100455.63
2023-05-14T08:42:45.246Z,100453.67
2023-05-14T08:45:38.967Z,100453.60
2023-05-14T08:48:34.020Z,100448.84
2023-05-14T08:51:22.500Z,100445.11
2023-05-14T08:54:15.429Z,100442.55
2023-05-14T08:57:05.099Z,100439.58
2023-05-14T08:59:56.515Z,100435.85
2023-05-14T09:02:46.723Z,100430.36
2023-05-14T09:05:35.063Z,100427.77
2023-05-14T09:08:23.862Z,100426.94
2023-05-14T09:11:13.673Z,100430.81
2023-05-14T09:14:01.801Z,100422.84
2023-05-14T09:16:51.534Z,100421.33
2023-05-14T09:19:41.572Z,100419.38
2023-05-14T09:22:33.940Z,100420.65
2023-05-14T09:25:28.422Z,100420.98
2023-05-14T09:28:18.883Z,100416.73
2023-05-14T09:31:07.344Z,100416.59
2023-05-14T09:33:55.349Z,100413.06
2023-05-14T09:36:43.672Z,100408.52
2023-05-14T09:39:33.917Z,100407.13
2023-05-14T09:42:21.701Z,100405.95
2023-05-14T09:45:11.452Z,100403.20
2023-05-14T09:48:01.490Z,100397.77
2023-05-14T09:50:50.738Z,100396.56
2023-05-14T09:53:41.599Z,100393.81
2023-05-14T09:56:30.832Z,100388.98
2023-05-14T09:59:19.214Z,100385.90
2023-05-14T10:02:37.875Z,100381.83
2023-05-14T10:05:37.489Z,100374.78
2023-05-14T10:08:36.678Z,100376.30
2023-05-14T10:11:31.177Z,100369.91
2023-05-14T10:14:27.136Z,100370.71
2023-05-14T10:17:18.626Z,100370.16
2023-05-14T10:20:12.196Z,100364.50
2023-05-14T10:23:03.867Z,100365.60
2023-05-14T10:25:55.664Z,100361.84
2023-05-14T10:28:50.022Z,100362.20
2023-05-14T10:31:48.636Z,100359.70
2023-05-14T10:34:38.978Z,100357.27
2023-05-14T10:37:28.461Z,100354.27
2023-05-14T10:40:18.695Z,100354.36
2023-05-14T10:43:09.037Z,100350.47
2023-05-14T10:45:58.967Z,100344.83
2023-05-14T10:48:47.428Z,100347.17
2023-05-14T10:51:36.955Z,100335.73
2023-05-14T10:54:29.373Z,100333.67
2023-05-14T10:57:23.216Z,100330.70
2023-05-14T11:00:14.216Z,100329.58
2023-05-14T11:03:06.090Z,100324.48
2023-05-14T11:05:55.800Z,100321.64
2023-05-14T11:08:46.612Z,100317.08
2023-05-14T11:11:36.952Z,100307.23
2023-05-14T11:14:25.201Z,100304.51
2023-05-14T11:17:13.630Z,100306.25
2023-05-14T11:20:02.106Z,100299.66
2023-05-14T11:22:51.940Z,100301.91
2023-05-14T11:25:42.079Z,100297.80
2023-05-14T11:28:31.372Z,100304.93
2023-05-14T11:31:23.465Z,100303.57
2023-05-14T11:34:13.676Z,100302.83
2023-05-14T11:37:07.621Z,100294.43
2023-05-14T11:40:00.803Z,100303.98
2023-05-14T11:42:53.871Z,100302.15
2023-05-14T11:45:43.031Z,100304.39
2023-05-14T11:48:34.632Z,100302.23
2023-05-14T11:51:23.535Z,100295.98
2023-05-14T11:54:14.464Z,100294.66
2023-05-14T11:57:09.012Z,100284.80
2023-05-14T11:59:58.064Z,100283.86
2023-05-14T12:02:50.195Z,100279.65
2023-05-14T12:05:40.497Z,100273.27
2023-05-14T12:08:33.256Z,100268.84
2023-05-14T12:11:23.138Z,100262.19
2023-05-14T12:14:16.328Z,100260.73
2023-05-14T12:17:09.965Z,100254.77
2023-05-14T12:19:57.991Z,100253.61
2023-05-14T12:22:46.299Z,100259.89
2023-05-14T12:25:41.778Z,100257.52
2023-05-14T12:28:36.948Z,100253.32
2023-05-14T12:31:35.070Z,100249.63
2023-05-14T12:34:23.100Z,100249.12
2023-05-14T12:37:12.032Z,100244.39
2023-05-14T12:40:00.566Z,100244.24
2023-05-14T12:42:49.122Z,100238.96
2023-05-14T12:45:37.333Z,100235.69
2023-05-14T12:48:26.269Z,100234.52
2023-05-14T12:51:15.781Z,100232.34
2023-05-14T12:54:05.046Z,100232.45
2023-05-14T12:56:53.068Z,100228.98
2023-05-14T12:59:41.704Z,100224.65
2023-05-14T13:02:30.771Z,100217.61
2023-05-14T13:05:19.142Z,100214.97
2023-05-14T13:08:08.325Z,100216.15
2023-05-14T13:10:57.853Z,100216.05
2023-05-14T13:13:46.104Z,100210.64
2023-05-14T13:16:34.588Z,100210.11
2023-05-14T13:19:24.850Z,100213.20
2023-05-14T13:22:18.958Z,100213.63
2023-05-14T13:25:08.802Z,100209.05
2023-05-14T13:27:59.451Z,100203.95
2023-05-14T13:31:08.003Z,100201.31
2023-05-14T13:33:58.362Z,100203.55
2023-05-14T13:36:47.340Z,100207.72
2023-05-14T13:39:35.638Z,100221.40
2023-05-14T13:42:24.108Z,100218.10
2023-05-14T13:45:13.362Z,100211.98
2023-05-14T13:48:01.639Z,100205.84
2023-05-14T13:50:50.591Z,100194.58
2023-05-14T13:53:38.868Z,100205.98
2023-05-14T13:56:27.926Z,100191.98
2023-05-14T13:59:16.760Z,100179.43
2023-05-14T14:02:05.599Z,100176.43
2023-05-14T14:04:53.796Z,100176.02
2023-05-14T14:07:42.323Z,100173.23
2023-05-14T14:10:31.083Z,100164.81
2023-05-14T14:13:21.377Z,100161.20
2023-05-14T14:16:12.714Z,100162.34
2023-05-14T14:19:01.694Z,100162.08
2023-05-14T14:24:38.981Z,100175.84
2023-05-14T14:27:28.457Z,100173.07
2023-05-14T14:30:16.132Z,100174.58
2023-05-14T14:33:04.672Z,100177.79
2023-05-14T14:35:53.990Z,100180.16
2023-05-14T14:38:42.804Z,100174.48
2023-05-14T14:41:31.130Z,100166.39
2023-05-14T14:44:22.480Z,100158.19
2023-05-14T14:47:10.723Z,100154.30
2023-05-14T14:49:59.152Z,100146.31
2023-05-14T14:52:48.256Z,100146.20
2023-05-14T14:55:37.195Z,100144.45
2023-05-14T14:58:25.550Z,100134.06
2023-05-14T15:01:14.917Z,100134.31
2023-05-14T15:04:04.003Z,100133.59
2023-05-14T15:06:52.478Z,100129.33
2023-05-14T15:09:42.511Z,100128.67
2023-05-14T15:12:31.041Z,100125.23
2023-05-14T15:15:19.638Z,100123.46
2023-05-14T15:18:08.099Z,100115.93
2023-05-14T15:20:57.179Z,100113.73
2023-05-14T15:23:47.748Z,100112.16
2023-05-14T15:26:35.994Z,100100.56
2023-05-14T15:29:27.155Z,100098.88
2023-05-14T15:32:15.792Z,100094.28
2023-05-14T15:35:05.148Z,100094.61
2023-05-14T15:37:59.748Z,100091.66
2023-05-14T15:40:50.984Z,100085.73
2023-05-14T15:43:42.698Z,100083.18
2023-05-14T15:46:33.121Z,100079.67
2023-05-14T15:49:21.707Z,100077.15
2023-05-14T15:52:13.684Z,100076.36
2023-05-14T15:55:01.599Z,100074.38
2023-05-14T15:57:50.569Z,100067.67
2023-05-14T16:00:41.212Z,100067.58
2023-05-14T16:03:33.652Z,100063.58
2023-05-14T16:06:25.573Z,100061.03
2023-05-14T16:09:13.349Z,100055.73
2023-05-14T16:12:03.121Z,100051.64
2023-05-14T16:14:52.299Z,100051.52
2023-05-14T16:17:42.678Z,100057.16
2023-05-14T16:20:31.234Z,100056.80
2023-05-14T16:23:21.279Z,100045.48
2023-05-14T16:26:09.307Z,100040.79
2023-05-14T16:28:58.472Z,100035.85
2023-05-14T16:31:52.232Z,100031.49
2023-05-14T16:34:42.086Z,100032.10
2023-05-14T16:37:32.116Z,100029.08
2023-05-14T16:40:22.355Z,100027.80
2023-05-14T16:43:11.572Z,100027.09
2023-05-14T16:46:02.366Z,100024.42
2023-05-14T16:48:52.671Z,100024.47
2023-05-14T16:51:44.362Z,100031.27
2023-05-14T16:54:34.734Z,100027.07
2023-05-14T16:57:25.718Z,100028.42
2023-05-14T17:00:15.949Z,100020.41
2023-05-14T17:03:04.901Z,100016.65
2023-05-14T17:05:53.951Z,100013.49
2023-05-14T17:08:42.062Z,100010.05
2023-05-14T17:11:30.230Z,100014.90
2023-05-14T17:14:18.658Z,100012.88
2023-05-14T17:17:07.523Z,100012.13
2023-05-14T17:19:56.766Z,100009.73
2023-05-14T17:22:45.223Z,100012.98
2023-05-14T17:25:33.768Z,100015.56
2023-05-14T17:28:27.089Z,100018.58
2023-05-14T17:31:18.755Z,100024.27
2023-05-14T17:34:07.635Z,100026.48
2023-05-14T17:36:56.223Z,100023.16
2023-05-14T17:39:44.342Z,100019.26
2023-05-14T17:42:32.590Z,100015.77
2023-05-14T17:45:21.586Z,100015.65
2023-05-14T17:48:12.503Z,100012.73
2023-05-14T17:51:01.004Z,100008.02
2023-05-14T17:53:49.666Z,100005.69
2023-05-14T17:56:38.037Z,100003.87
2023-05-14T17:59:26.620Z,100001.98
2023-05-14T18:02:16.702Z,100000.86
2023-05-14T18:05:05.604Z,100004.39
2023-05-14T18:07:55.291Z,100003.02
2023-05-14T18:10:44.119Z,100005.57
2023-05-14T18:13:35.098Z,100008.04
2023-05-14T18:16:24.131Z,100003.70
2023-05-14T18:19:15.197Z,100000.08
2023-05-14T18:22:03.656Z,100001.15
2023-05-14T18:24:52.865Z,100005.45
2023-05-14T18:27:44.633Z,100011.25
2023-05-14T18:30:33.423Z,100017.45
2023-05-14T18:33:24.138Z,100018.89
2023-05-14T18:36:13.457Z,100015.72
2023-05-14T18:39:05.795Z,100011.29
2023-05-14T18:41:56.683Z,100014.04
2023-05-14T18:44:44.868Z,100013.67
2023-05-14T18:47:34.749Z,100018.59
2023-05-14T18:50:27.132Z,100022.04
2023-05-14T18:53:15.347Z,100017.67
2023-05-14T18:56:05.200Z,100023.77
2023-05-14T18:58:55.051Z,100018.83
2023-05-14T19:01:43.581Z,100015.67
2023-05-14T19:04:33.552Z,100015.61
2023-05-14T19:07:27.950Z,100007.81
2023-05-14T19:10:18.953Z,100006.77
2023-05-14T19:13:07.087Z,100003.73
2023-05-14T19:15:56.103Z,99996.95
2023-05-14T19:18:44.113Z,99994.58
2023-05-14T19:21:32.873Z,99991.87
2023-05-14T19:24:20.680Z,99991.02
2023-05-14T19:27:19.414Z,99988.10
2023-05-14T19:30:09.425Z,99984.50
2023-05-14T19:33:04.595Z,99979.39
2023-05-14T19:35:56.281Z,99980.86
2023-05-14T19:38:44.830Z,99976.66
2023-05-14T19:41:34.979Z,99972.29
2023-05-14T19:44:24.480Z,99965.80
2023-05-14T19:47:14.137Z,99964.71
2023-05-14T19:50:04.404Z,99960.54
2023-05-14T19:52:52.688Z,99960.45
2023-05-14T19:55:44.338Z,99960.89
2023-05-14T19:58:34.847Z,99957.15
2023-05-14T20:01:23.025Z,99957.84
2023-05-14T20:04:11.561Z,99961.68
2023-05-14T20:07:01.303Z,99957.67
2023-05-14T20:09:49.561Z,99953.33
2023-05-14T20:12:37.997Z,99958.48
2023-05-14T20:15:26.857Z,99958.04
2023-05-14T20:18:15.283Z,99957.58
2023-05-14T20:21:05.712Z,99962.27
2023-05-14T20:23:54.182Z,99963.11
2023-05-14T20:26:44.104Z,99965.60
2023-05-14T20:29:35.073Z,99963.81
2023-05-14T20:32:25.167Z,99959.38
2023-05-14T20:35:14.747Z,99962.17
2023-05-14T20:38:04.563Z,99956.60
2023-05-14T20:40:54.058Z,99958.52
2023-05-14T20:43:44.582Z,99958.39
2023-05-14T20:46:33.169Z,99956.36
2023-05-14T20:49:21.389Z,99951.71
2023-05-14T20:52:10.315Z,99948.40
2023-05-14T20:55:00.755Z,99942.38
2023-05-14T20:57:49.932Z,99936.00
2023-05-14T21:00:39.317Z,99937.72
2023-05-14T21:03:27.555Z,99937.29
2023-05-14T21:06:16.420Z,99937.11
2023-05-14T21:09:04.622Z,99932.80
2023-05-14T21:11:54.143Z,99928.55
2023-05-14T21:14:43.365Z,99934.78
2023-05-14T21:17:34.652Z,99931.14
2023-05-14T21:20:25.072Z,99930.86
2023-05-14T21:23:14.816Z,99926.41
2023-05-14T21:26:03.432Z,99922.62
2023-05-14T21:28:53.459Z,99915.75
2023-05-14T21:31:41.386Z,99914.23
2023-05-14T21:34:31.234Z,99912.98
2023-05-14T21:37:21.945Z,99910.26
2023-05-14T21:40:12.585Z,99906.86
2023-05-14T21:43:06.153Z,99902.49
2023-05-14T21:45:54.508Z,99897.73
2023-05-14T21:48:42.604Z,99897.39
2023-05-14T21:51:32.354Z,99892.42
2023-05-14T21:54:21.173Z,99887.61
2023-05-14T21:57:09.519Z,99891.13
2023-05-14T21:59:58.289Z,99888.38
2023-05-14T22:02:47.235Z,99887.24
2023-05-14T22:05:36.963Z,99885.27
2023-05-14T22:08:24.948Z,99881.51
2023-05-14T22:11:13.781Z,99885.50
2023-05-14T22:14:04.407Z,99879.08
2023-05-14T22:16:55.286Z,99879.34
2023-05-14T22:19:43.781Z,99882.06
2023-05-14T22:22:32.379Z,99879.35
2023-05-14T22:25:20.351Z,99878.15
2023-05-14T22:28:08.406Z,99878.33
2023-05-14T22:30:59.873Z,99875.90
2023-05-14T22:33:47.689Z,99871.05
2023-05-14T22:36:35.794Z,99870.11
2023-05-14T22:39:24.005Z,99872.95
2023-05-14T22:42:12.242Z,99872.14
2023-05-14T22:45:00.297Z,99869.41
2023-05-14T22:47:49.207Z,99862.58
2023-05-14T22:50:37.346Z,99857.00
2023-05-14T22:53:25.676Z,99854.79
2023-05-14T22:56:15.541Z,99855.13
2023-05-14T22:59:04.307Z,99852.98
2023-05-14T23:01:52.174Z,99850.59
2023-05-14T23:04:40.625Z,99849.45
2023-05-14T23:07:28.784Z,99841.34
2023-05-14T23:10:17.992Z,99839.95
2023-05-14T23:13:06.851Z,99840.03
2023-05-14T23:15:55.881Z,99836.92
2023-05-14T23:18:45.086Z,99834.27
2023-05-14T23:21:33.390Z,99825.86
2023-05-14T23:24:22.405Z,99824.55
2023-05-14T23:27:11.818Z,99822.55
2023-05-14T23:29:59.924Z,99818.38
2023-05-14T23:32:49.810Z,99812.64
2023-05-14T23:35:39.876Z,99814.16
2023-05-14T23:38:27.647Z,99806.04
2023-05-14T23:41:15.814Z,99805.10
2023-05-14T23:44:04.032Z,99800.04
2023-05-14T23:46:53.721Z,99791.70
2023-05-14T23:49:41.969Z,99790.04
2023-05-14T23:52:30.066Z,99782.39
2023-05-14T23:55:19.232Z,99781.02
2023-05-14T23:58:07.633Z,99776.13
